Decoded Metar for KIMT (IRON MOUNTAIN in MI, USA) (IATA:IMT) | Meteo·Mobile Aviation Weather
aviador You're here:

KIMT Decoded Metar

IRON MOUNTAIN in MI, USA
Report Time2018-11-12 21:54:00
UTC Time2018-11-12 22:10:10
Flight Rules vfr VFR
Wind290° at 09 kt
W.Decomp.*RWY 31: 8.6 kt HW 2.8 kt LCW
RWY 01: 1.9 kt HW 8.8 kt LCW
W.Rank290° ranks 9
Current wind is above 290° avg. (8.3)
Visibility9999 m
Phenomena:N/A
Clouds:Overcast 040 Hf
Expected CloudBase > 2,800 ft AGL from Temp-Dew spread
Ceiling4,000 ft
Temp-4°C (ISA -17)
Dew Point-11°C (59% RH)
AAT-10.4°C
QNH1025 hPa
Density Alt-1,280 ft
Elevation1,145 ft
Report Wrong Elevation
Raw Report
KIMT 122154Z AUTO 29009KT 10SM OVC040 M04/M11 A3027 RMK AO2
SNB2056E06 SLP273 P0000 T10391106 $=

Extra information for KIMT:More info

Metar Taf Metar & Taf Last 4 Metars F.Rules Stats Wind Profile Meteogram Temp Stats Airport Information Weather charts Add Link Nearby VenuesMetar ALERT Operation Metar Decoded Social comments

AIRNAV info for KIMT